createdAt,value
2019-03-28T00:01:27.243Z,102196.37
2019-03-28T00:03:57.736Z,102202.16
2019-03-28T00:06:28.272Z,102200.83
2019-03-28T00:08:59.268Z,102202.95
2019-03-28T00:11:29.663Z,102203.41
2019-03-28T00:14:00.508Z,102205.61
2019-03-28T00:16:31.100Z,102206.55
2019-03-28T00:19:02.214Z,102198.16
2019-03-28T00:21:33.028Z,102197.73
2019-03-28T00:24:05.569Z,102198.21
2019-03-28T00:26:36.145Z,102200.45
2019-03-28T00:29:06.618Z,102208.89
2019-03-28T00:31:37.145Z,102201.39
2019-03-28T00:34:07.780Z,102194.34
2019-03-28T00:36:38.620Z,102196.15
2019-03-28T00:39:09.549Z,102183.28
2019-03-28T00:41:40.380Z,102189.50
2019-03-28T00:44:11.312Z,102185.53
2019-03-28T00:46:41.990Z,102183.33
2019-03-28T00:49:12.942Z,102192.63
2019-03-28T00:51:43.606Z,102174.92
2019-03-28T00:54:14.062Z,102182.90
2019-03-28T00:56:47.346Z,102185.55
2019-03-28T00:59:18.206Z,102190.86
2019-03-28T01:01:48.654Z,102182.90
2019-03-28T01:04:19.313Z,102197.09
2019-03-28T01:06:50.113Z,102193.11
2019-03-28T01:09:20.705Z,102198.38
2019-03-28T01:11:51.237Z,102194.84
2019-03-28T01:14:21.828Z,102196.63
2019-03-28T01:16:53.426Z,102196.56
2019-03-28T01:19:24.202Z,102202.33
2019-03-28T01:21:55.011Z,102193.43
2019-03-28T01:24:25.849Z,102192.55
2019-03-28T01:26:57.407Z,102186.32
2019-03-28T01:29:28.817Z,102191.64
2019-03-28T01:31:59.379Z,102191.64
2019-03-28T01:34:30.118Z,102199.14
2019-03-28T01:37:00.943Z,102196.48
2019-03-28T01:39:31.776Z,102192.50
2019-03-28T01:42:02.301Z,102199.59
2019-03-28T01:44:33.318Z,102195.59
2019-03-28T01:47:04.419Z,102191.13
2019-03-28T01:49:35.046Z,102194.20
2019-03-28T01:52:05.754Z,102190.22
2019-03-28T01:54:36.135Z,102188.48
2019-03-28T01:57:11.280Z,102188.03
2019-03-28T01:59:39.782Z,102186.70
2019-03-28T02:02:11.919Z,102188.50
2019-03-28T02:04:42.482Z,102188.11
2019-03-28T02:07:12.971Z,102186.37
2019-03-28T02:09:43.590Z,102185.05
2019-03-28T02:12:14.769Z,102192.59
2019-03-28T02:14:45.289Z,102194.77
2019-03-28T02:17:16.004Z,102199.14
2019-03-28T02:19:46.516Z,102191.62
2019-03-28T02:22:17.233Z,102192.02
2019-03-28T02:24:47.878Z,102187.56
2019-03-28T02:27:23.771Z,102184.42
2019-03-28T02:29:50.856Z,102177.36
2019-03-28T02:32:21.340Z,102185.36
2019-03-28T02:34:52.044Z,102177.84
2019-03-28T02:37:22.536Z,102177.84
2019-03-28T02:39:53.277Z,102170.80
2019-03-28T02:42:23.610Z,102165.95
2019-03-28T02:44:54.029Z,102163.77
2019-03-28T02:47:24.660Z,102157.98
2019-03-28T02:49:55.382Z,102155.78
2019-03-28T02:52:25.816Z,102163.77
2019-03-28T02:54:56.319Z,102164.65
2019-03-28T02:57:40.254Z,102160.67
2019-03-28T03:00:00.156Z,102161.63
2019-03-28T03:02:30.891Z,102161.69
2019-03-28T03:05:01.532Z,102169.73
2019-03-28T03:07:32.098Z,102171.08
2019-03-28T03:10:03.294Z,102172.41
2019-03-28T03:12:33.839Z,102172.02
2019-03-28T03:15:06.158Z,102178.60
2019-03-28T03:17:37.629Z,102183.91
2019-03-28T03:20:08.150Z,102173.27
2019-03-28T03:22:39.679Z,102183.43
2019-03-28T03:25:10.144Z,102182.95
2019-03-28T03:27:56.967Z,102190.46
2019-03-28T03:30:13.604Z,102192.59
2019-03-28T03:32:44.117Z,102191.62
2019-03-28T03:35:14.693Z,102195.06
2019-03-28T03:37:45.499Z,102196.84
2019-03-28T03:40:16.159Z,102192.80
2019-03-28T03:42:48.525Z,102197.16
2019-03-28T03:45:19.011Z,102199.83
2019-03-28T03:47:49.700Z,102200.28
2019-03-28T03:50:27.917Z,102209.13
2019-03-28T03:52:58.313Z,102202.00
2019-03-28T03:55:29.404Z,102213.41
2019-03-28T03:58:14.595Z,102213.77
2019-03-28T04:00:35.176Z,102214.67
2019-03-28T04:03:05.861Z,102211.98
2019-03-28T04:05:36.383Z,102206.20
2019-03-28T04:08:07.434Z,102210.95
2019-03-28T04:10:38.237Z,102211.92
2019-03-28T04:13:10.698Z,102206.95
2019-03-28T04:15:41.717Z,102206.58
2019-03-28T04:18:12.314Z,102210.56
2019-03-28T04:20:43.001Z,102202.61
2019-03-28T04:23:13.671Z,102205.25
2019-03-28T04:25:44.583Z,102210.50
2019-03-28T04:28:30.798Z,102207.89
2019-03-28T04:30:47.956Z,102205.23
2019-03-28T04:33:19.523Z,102206.17
2019-03-28T04:35:50.504Z,102203.85
2019-03-28T04:38:21.042Z,102213.16
2019-03-28T04:40:51.979Z,102217.20
2019-03-28T04:43:22.674Z,102230.53
2019-03-28T04:45:53.595Z,102226.61
2019-03-28T04:48:24.075Z,102228.83
2019-03-28T04:50:54.916Z,102230.16
2019-03-28T04:53:25.876Z,102232.83
2019-03-28T04:55:56.433Z,102237.81
2019-03-28T04:58:28.440Z,102243.99
2019-03-28T05:00:59.996Z,102241.33
2019-03-28T05:03:30.647Z,102231.95
2019-03-28T05:06:01.526Z,102242.20
2019-03-28T05:08:32.099Z,102247.03
2019-03-28T05:11:05.506Z,102243.06
2019-03-28T05:13:36.108Z,102245.23
2019-03-28T05:16:07.067Z,102249.16
2019-03-28T05:18:37.740Z,102246.89
2019-03-28T05:21:09.549Z,102245.95
2019-03-28T05:23:40.550Z,102247.56
2019-03-28T05:26:11.579Z,102253.27
2019-03-28T05:28:42.044Z,102258.98
2019-03-28T05:31:12.502Z,102255.44
2019-03-28T05:33:43.375Z,102255.35
2019-03-28T05:36:14.291Z,102260.98
2019-03-28T05:38:46.574Z,102264.95
2019-03-28T05:41:17.622Z,102262.95
2019-03-28T05:43:48.472Z,102264.22
2019-03-28T05:46:19.303Z,102270.34
2019-03-28T05:48:49.775Z,102277.41
2019-03-28T05:51:20.478Z,102285.86
2019-03-28T05:53:50.776Z,102289.86
2019-03-28T05:56:22.436Z,102290.13
2019-03-28T05:58:53.025Z,102293.67
2019-03-28T06:01:24.946Z,102295.17
2019-03-28T06:03:55.889Z,102304.37
2019-03-28T06:06:26.689Z,102306.88
2019-03-28T06:08:57.440Z,102314.78
2019-03-28T06:11:28.608Z,102315.49
2019-03-28T06:14:01.045Z,102317.23
2019-03-28T06:16:32.036Z,102317.97
2019-03-28T06:19:02.884Z,102311.66
2019-03-28T06:21:33.620Z,102314.20
2019-03-28T06:24:04.253Z,102320.44
2019-03-28T06:26:35.152Z,102316.31
2019-03-28T06:29:08.649Z,102316.90
2019-03-28T06:31:38.859Z,102319.22
2019-03-28T06:34:09.571Z,102324.52
2019-03-28T06:36:40.507Z,102330.11
2019-03-28T06:39:11.335Z,102330.62
2019-03-28T06:41:44.356Z,102324.31
2019-03-28T06:44:14.814Z,102331.92
2019-03-28T06:46:45.501Z,102330.72
2019-03-28T06:49:16.009Z,102327.11
2019-03-28T06:51:48.383Z,102336.80
2019-03-28T06:54:19.147Z,102334.55
2019-03-28T06:56:49.973Z,102338.12
2019-03-28T06:59:21.839Z,102353.38
2019-03-28T07:01:52.669Z,102353.53
2019-03-28T07:04:23.707Z,102359.00
2019-03-28T07:06:54.508Z,102355.25
2019-03-28T07:09:25.848Z,102360.59
2019-03-28T07:11:56.202Z,102361.77
2019-03-28T07:14:26.902Z,102363.95
2019-03-28T07:16:57.532Z,102371.98
2019-03-28T07:19:28.387Z,102361.56
2019-03-28T07:21:59.325Z,102374.06
2019-03-28T07:24:29.947Z,102368.80
2019-03-28T07:27:01.167Z,102369.13
2019-03-28T07:29:32.459Z,102373.59
2019-03-28T07:32:03.595Z,102377.38
2019-03-28T07:34:34.519Z,102380.88
2019-03-28T07:37:04.926Z,102388.02
2019-03-28T07:39:35.324Z,102382.56
2019-03-28T07:42:06.110Z,102389.27
2019-03-28T07:44:37.660Z,102389.23
2019-03-28T07:47:08.328Z,102392.05
2019-03-28T07:49:38.699Z,102390.06
2019-03-28T07:52:10.364Z,102391.55
2019-03-28T07:54:40.799Z,102396.13
2019-03-28T07:57:11.493Z,102398.55
2019-03-28T07:59:44.210Z,102405.19
2019-03-28T08:02:16.789Z,102406.12
2019-03-28T08:04:47.235Z,102400.17
2019-03-28T08:07:17.857Z,102407.25
2019-03-28T08:09:48.325Z,102403.59
2019-03-28T08:12:22.867Z,102404.34
2019-03-28T08:14:51.009Z,102397.62
2019-03-28T08:17:23.015Z,102397.89
2019-03-28T08:19:53.529Z,102393.54
2019-03-28T08:22:24.888Z,102394.86
2019-03-28T08:24:55.660Z,102396.25
2019-03-28T08:27:26.539Z,102401.14
2019-03-28T08:29:57.927Z,102396.95
2019-03-28T08:32:30.695Z,102393.26
2019-03-28T08:35:01.313Z,102396.06
2019-03-28T08:37:35.991Z,102403.76
2019-03-28T08:40:08.114Z,102405.25
2019-03-28T08:42:39.044Z,102402.61
2019-03-28T08:45:09.704Z,102407.26
2019-03-28T08:47:40.471Z,102400.94
2019-03-28T08:50:11.217Z,102404.29
2019-03-28T08:52:41.868Z,102404.55
2019-03-28T08:55:14.203Z,102407.19
2019-03-28T08:57:45.136Z,102407.70
2019-03-28T09:00:17.369Z,102409.97
2019-03-28T09:02:49.373Z,102412.25
2019-03-28T09:05:20.139Z,102415.75
2019-03-28T09:07:50.936Z,102407.84
2019-03-28T09:10:21.420Z,102430.19
2019-03-28T09:12:51.894Z,102427.70
2019-03-28T09:15:23.265Z,102430.95
2019-03-28T09:17:53.919Z,102430.95
2019-03-28T09:20:24.496Z,102435.45
2019-03-28T09:22:55.363Z,102423.05
2019-03-28T09:25:25.896Z,102425.56
2019-03-28T09:27:56.505Z,102414.57
2019-03-28T09:30:46.804Z,102411.30
2019-03-28T09:33:05.797Z,102421.94
2019-03-28T09:35:36.427Z,102412.36
2019-03-28T09:38:06.780Z,102412.13
2019-03-28T09:40:37.354Z,102411.05
2019-03-28T09:43:08.277Z,102420.17
2019-03-28T09:45:38.894Z,102422.53
2019-03-28T09:48:11.650Z,102418.66
2019-03-28T09:50:41.705Z,102422.56
2019-03-28T09:53:12.524Z,102429.92
2019-03-28T09:55:43.055Z,102426.70
2019-03-28T09:58:13.951Z,102412.29
2019-03-28T10:00:45.867Z,102430.39
2019-03-28T10:03:16.534Z,102427.26
2019-03-28T10:05:47.165Z,102437.11
2019-03-28T10:08:18.827Z,102436.90
2019-03-28T10:10:49.460Z,102442.34
2019-03-28T10:13:19.945Z,102444.30
2019-03-28T10:15:50.605Z,102442.61
2019-03-28T10:18:21.317Z,102451.71
2019-03-28T10:20:51.913Z,102445.95
2019-03-28T10:23:22.855Z,102453.19
2019-03-28T10:25:53.568Z,102444.83
2019-03-28T10:28:24.654Z,102448.34
2019-03-28T10:30:56.310Z,102446.67
2019-03-28T10:33:27.028Z,102444.95
2019-03-28T10:35:57.803Z,102448.77
2019-03-28T10:38:28.505Z,102449.23
2019-03-28T10:41:00.147Z,102450.55
2019-03-28T10:43:31.011Z,102449.32
2019-03-28T10:46:02.495Z,102444.94
2019-03-28T10:48:33.265Z,102439.69
2019-03-28T10:51:03.657Z,102436.77
2019-03-28T10:53:34.544Z,102447.11
2019-03-28T10:56:05.158Z,102451.84
2019-03-28T10:58:37.505Z,102447.13
2019-03-28T11:01:09.154Z,102450.86
2019-03-28T11:03:39.927Z,102452.42
2019-03-28T11:06:10.434Z,102449.56
2019-03-28T11:08:42.648Z,102453.13
2019-03-28T11:11:14.541Z,102457.72
2019-03-28T11:13:45.990Z,102460.77
2019-03-28T11:16:16.625Z,102468.66
2019-03-28T11:18:47.037Z,102461.41
2019-03-28T11:21:17.635Z,102461.41
2019-03-28T11:23:48.123Z,102463.28
2019-03-28T11:26:19.884Z,102464.41
2019-03-28T11:28:50.703Z,102471.20
2019-03-28T11:31:21.429Z,102437.05
2019-03-28T11:33:51.909Z,102437.05
2019-03-28T11:36:22.597Z,102467.16
2019-03-28T11:38:53.144Z,102465.84
2019-03-28T11:41:23.950Z,102467.75
2019-03-28T11:43:54.559Z,102438.82
2019-03-28T11:46:25.041Z,102460.94
2019-03-28T11:48:55.520Z,102459.03
2019-03-28T11:51:27.517Z,102453.05
2019-03-28T11:53:57.935Z,102450.68
2019-03-28T11:56:29.781Z,102451.00
2019-03-28T11:59:00.224Z,102455.48
2019-03-28T12:01:32.387Z,102462.20
2019-03-28T12:04:02.852Z,102462.69
2019-03-28T12:06:34.318Z,102452.23
2019-03-28T12:09:07.388Z,102465.22
2019-03-28T12:11:38.115Z,102465.31
2019-03-28T12:14:08.645Z,102467.03
2019-03-28T12:16:40.616Z,102467.67
2019-03-28T12:19:11.221Z,102461.38
2019-03-28T12:21:41.782Z,102460.23
2019-03-28T12:24:12.676Z,102454.61
2019-03-28T12:26:43.490Z,102459.89
2019-03-28T12:29:13.999Z,102461.52
2019-03-28T12:31:46.169Z,102459.26
2019-03-28T12:34:16.661Z,102466.32
2019-03-28T12:36:47.509Z,102474.48
2019-03-28T12:39:18.095Z,102478.47
2019-03-28T12:41:48.786Z,102483.74
2019-03-28T12:44:19.367Z,102484.66
2019-03-28T12:46:51.596Z,102487.06
2019-03-28T12:49:38.955Z,102483.30
2019-03-28T12:52:09.407Z,102483.44
2019-03-28T12:54:43.997Z,102488.98
2019-03-28T12:57:14.542Z,102486.06
2019-03-28T12:59:45.802Z,102493.19
2019-03-28T13:02:28.323Z,102491.95
2019-03-28T13:04:49.745Z,102487.13
2019-03-28T13:07:20.672Z,102498.55
2019-03-28T13:09:51.281Z,102498.73
2019-03-28T13:12:22.911Z,102474.84
2019-03-28T13:14:53.812Z,102498.50
2019-03-28T13:17:24.336Z,102503.14
2019-03-28T13:19:54.851Z,102503.16
2019-03-28T13:22:25.301Z,102511.70
2019-03-28T13:24:56.345Z,102508.55
2019-03-28T13:27:26.943Z,102506.29
2019-03-28T13:29:57.700Z,102507.46
2019-03-28T13:32:41.043Z,102507.25
2019-03-28T13:35:00.822Z,102505.30
2019-03-28T13:37:31.864Z,102497.34
2019-03-28T13:40:02.685Z,102502.40
2019-03-28T13:42:33.317Z,102504.20
2019-03-28T13:45:07.914Z,102508.08
2019-03-28T13:47:38.510Z,102503.45
2019-03-28T13:50:09.843Z,102494.98
2019-03-28T13:52:40.596Z,102493.37
2019-03-28T13:55:11.234Z,102489.22
2019-03-28T13:57:43.413Z,102486.05
2019-03-28T14:00:15.475Z,102484.56
2019-03-28T14:02:57.166Z,102491.02
2019-03-28T14:05:18.526Z,102492.31
2019-03-28T14:07:49.166Z,102482.91
2019-03-28T14:10:21.760Z,102481.92
2019-03-28T14:12:52.188Z,102486.27
2019-03-28T14:15:22.849Z,102490.17
2019-03-28T14:17:54.154Z,102488.75
2019-03-28T14:20:24.650Z,102497.90
2019-03-28T14:22:56.942Z,102503.82
2019-03-28T14:25:28.029Z,102512.16
2019-03-28T14:27:58.902Z,102507.01
2019-03-28T14:30:30.008Z,102513.65
2019-03-28T14:33:11.294Z,102506.80
2019-03-28T14:35:33.487Z,102513.16
2019-03-28T14:38:04.067Z,102512.09
2019-03-28T14:40:34.546Z,102508.80
2019-03-28T14:43:05.397Z,102500.84
2019-03-28T14:45:35.969Z,102506.58
2019-03-28T14:48:07.101Z,102503.81
2019-03-28T14:50:39.193Z,102485.37
2019-03-28T14:53:09.822Z,102485.37
2019-03-28T14:55:40.381Z,102479.46
2019-03-28T14:58:11.084Z,102499.04
2019-03-28T15:00:49.036Z,102499.04
2019-03-28T15:03:26.111Z,102502.84
2019-03-28T15:05:52.305Z,102501.37
2019-03-28T15:08:23.094Z,102507.28
2019-03-28T15:10:53.609Z,102507.28
2019-03-28T15:13:24.327Z,102482.49
2019-03-28T15:15:55.732Z,102512.08
2019-03-28T15:18:26.195Z,102512.08
2019-03-28T15:20:57.212Z,102515.38
2019-03-28T15:23:29.101Z,102514.45
2019-03-28T15:26:00.200Z,102515.27
2019-03-28T15:28:32.368Z,102519.81
2019-03-28T15:31:02.972Z,102513.81
2019-03-28T15:33:39.738Z,102520.37
2019-03-28T15:36:07.884Z,102518.84
2019-03-28T15:38:39.918Z,102523.17
2019-03-28T15:41:11.883Z,102524.30
2019-03-28T15:43:42.573Z,102523.58
2019-03-28T15:46:13.181Z,102513.96
2019-03-28T15:48:44.123Z,102523.05
2019-03-28T15:51:14.727Z,102516.26
2019-03-28T15:53:48.061Z,102525.17
2019-03-28T15:56:20.440Z,102525.44
2019-03-28T15:58:52.812Z,102522.02
2019-03-28T16:01:23.557Z,102516.12
2019-03-28T16:03:54.286Z,102518.23
2019-03-28T16:06:28.108Z,102522.11
2019-03-28T16:09:00.370Z,102527.98
2019-03-28T16:11:31.825Z,102530.24
2019-03-28T16:14:03.316Z,102536.91
2019-03-28T16:16:34.264Z,102534.39
2019-03-28T16:19:05.736Z,102535.27
2019-03-28T16:21:36.639Z,102530.74
2019-03-28T16:24:08.288Z,102532.22
2019-03-28T16:26:40.358Z,102534.09
2019-03-28T16:29:10.869Z,102535.28
2019-03-28T16:31:41.318Z,102533.84
2019-03-28T16:34:11.866Z,102534.80
2019-03-28T16:36:47.051Z,102532.16
2019-03-28T16:39:17.738Z,102536.93
2019-03-28T16:41:49.107Z,102535.82
2019-03-28T16:44:20.207Z,102536.72
2019-03-28T16:46:50.690Z,102538.90
2019-03-28T16:49:21.512Z,102545.93
2019-03-28T16:51:52.029Z,102550.60
2019-03-28T16:54:22.860Z,102550.20
2019-03-28T16:56:53.754Z,102557.81
2019-03-28T16:59:25.482Z,102564.61
2019-03-28T17:01:56.404Z,102569.95
2019-03-28T17:04:27.920Z,102564.39
2019-03-28T17:06:59.678Z,102571.55
2019-03-28T17:09:37.463Z,102568.25
2019-03-28T17:12:07.047Z,102560.28
2019-03-28T17:14:37.714Z,102564.02
2019-03-28T17:17:09.006Z,102564.86
2019-03-28T17:19:42.623Z,102566.34
2019-03-28T17:22:11.640Z,102569.64
2019-03-28T17:24:42.197Z,102574.70
2019-03-28T17:27:12.723Z,102575.63
2019-03-28T17:29:43.433Z,102569.09
2019-03-28T17:32:14.945Z,102575.63
2019-03-28T17:34:47.277Z,102575.41
2019-03-28T17:37:17.783Z,102574.91
2019-03-28T17:39:48.441Z,102575.10
2019-03-28T17:42:19.046Z,102579.41
2019-03-28T17:44:49.525Z,102589.20
2019-03-28T17:47:20.206Z,102588.28
2019-03-28T17:49:51.759Z,102601.39
2019-03-28T17:52:22.557Z,102599.20
2019-03-28T17:54:54.690Z,102598.84
2019-03-28T17:57:25.608Z,102597.21
2019-03-28T17:59:56.250Z,102607.30
2019-03-28T18:02:26.995Z,102600.14
2019-03-28T18:05:09.233Z,102599.67
2019-03-28T18:07:31.052Z,102605.53
2019-03-28T18:10:01.543Z,102610.00
2019-03-28T18:12:33.100Z,102613.24
2019-03-28T18:15:03.950Z,102615.23
2019-03-28T18:17:34.740Z,102616.67
2019-03-28T18:20:08.314Z,102621.73
2019-03-28T18:22:39.453Z,102622.81
2019-03-28T18:25:10.264Z,102624.29
2019-03-28T18:27:41.321Z,102621.28
2019-03-28T18:30:12.159Z,102625.42
2019-03-28T18:32:42.879Z,102627.73
2019-03-28T18:35:13.516Z,102627.31
2019-03-28T18:37:44.752Z,102630.88
2019-03-28T18:40:15.295Z,102631.26
2019-03-28T18:42:46.635Z,102636.88
2019-03-28T18:45:18.051Z,102639.33
2019-03-28T18:47:49.423Z,102633.68
2019-03-28T18:50:20.073Z,102638.05
2019-03-28T18:52:52.777Z,102631.14
2019-03-28T18:55:23.839Z,102633.26
2019-03-28T18:57:54.459Z,102635.75
2019-03-28T19:00:25.925Z,102638.48
2019-03-28T19:02:57.036Z,102639.89
2019-03-28T19:05:27.908Z,102646.27
2019-03-28T19:08:00.260Z,102647.63
2019-03-28T19:10:31.669Z,102650.87
2019-03-28T19:13:04.744Z,102649.59
2019-03-28T19:15:35.093Z,102642.81
2019-03-28T19:18:07.685Z,102647.69
2019-03-28T19:20:38.690Z,102652.20
2019-03-28T19:23:10.488Z,102656.67
2019-03-28T19:25:46.621Z,102663.80
2019-03-28T19:28:28.236Z,102657.59
2019-03-28T19:30:48.914Z,102658.08
2019-03-28T19:33:21.516Z,102655.85
2019-03-28T19:35:53.339Z,102654.52
2019-03-28T19:38:24.343Z,102649.59
2019-03-28T19:40:55.024Z,102645.80
2019-03-28T19:43:25.522Z,102649.38
2019-03-28T19:45:56.319Z,102651.52
2019-03-28T19:48:28.026Z,102655.00
2019-03-28T19:50:58.934Z,102659.88
2019-03-28T19:53:31.386Z,102663.06
2019-03-28T19:56:04.027Z,102654.32
2019-03-28T19:58:35.285Z,102651.88
2019-03-28T20:01:06.556Z,102659.09
2019-03-28T20:03:37.471Z,102649.01
2019-03-28T20:06:21.291Z,102651.30
2019-03-28T20:08:41.405Z,102649.15
2019-03-28T20:11:13.410Z,102647.90
2019-03-28T20:13:44.279Z,102654.97
2019-03-28T20:16:15.043Z,102651.10
2019-03-28T20:18:45.793Z,102652.50
2019-03-28T20:21:16.868Z,102658.34
2019-03-28T20:23:48.874Z,102655.23
2019-03-28T20:26:21.707Z,102658.83
2019-03-28T20:28:52.341Z,102660.25
2019-03-28T20:31:22.917Z,102658.95
2019-03-28T20:33:53.678Z,102657.64
2019-03-28T20:36:37.660Z,102654.08
2019-03-28T20:39:04.288Z,102652.83
2019-03-28T20:41:33.331Z,102651.92
2019-03-28T20:44:04.174Z,102658.14
2019-03-28T20:46:35.248Z,102662.53
2019-03-28T20:49:06.404Z,102661.17
2019-03-28T20:51:39.359Z,102666.48
2019-03-28T20:54:12.212Z,102672.27
2019-03-28T20:56:43.234Z,102664.76
2019-03-28T20:59:14.487Z,102670.50
2019-03-28T21:01:45.717Z,102666.03
2019-03-28T21:04:30.320Z,102676.16
2019-03-28T21:06:50.177Z,102680.14
2019-03-28T21:09:20.998Z,102678.76
2019-03-28T21:11:52.963Z,102675.20
2019-03-28T21:14:28.036Z,102685.31
2019-03-28T21:17:00.599Z,102673.34
2019-03-28T21:19:31.635Z,102678.63
2019-03-28T21:22:05.725Z,102685.66
2019-03-28T21:24:35.097Z,102687.83
2019-03-28T21:27:08.459Z,102682.09
2019-03-28T21:29:48.762Z,102684.72
2019-03-28T21:32:16.474Z,102684.72
2019-03-28T21:34:47.767Z,102685.97
2019-03-28T21:37:18.857Z,102680.61
2019-03-28T21:39:49.654Z,102681.06
2019-03-28T21:42:20.250Z,102692.16
2019-03-28T21:44:52.673Z,102690.00
2019-03-28T21:47:23.361Z,102691.78
2019-03-28T21:49:54.007Z,102687.71
2019-03-28T21:52:24.680Z,102695.16
2019-03-28T21:54:55.883Z,102692.95
2019-03-28T21:57:26.814Z,102695.83
2019-03-28T21:59:57.647Z,102701.83
2019-03-28T22:02:28.379Z,102701.16
2019-03-28T22:05:01.532Z,102698.23
2019-03-28T22:07:32.399Z,102696.59
2019-03-28T22:10:03.407Z,102697.56
2019-03-28T22:12:34.282Z,102687.61
2019-03-28T22:15:06.554Z,102682.91
2019-03-28T22:17:37.699Z,102681.57
2019-03-28T22:20:08.299Z,102683.39
2019-03-28T22:22:38.890Z,102686.96
2019-03-28T22:25:09.748Z,102690.42
2019-03-28T22:27:40.242Z,102687.04
2019-03-28T22:30:11.367Z,102680.61
2019-03-28T22:32:42.266Z,102685.23
2019-03-28T22:35:13.104Z,102679.59
2019-03-28T22:37:44.778Z,102677.05
2019-03-28T22:40:17.252Z,102685.45
2019-03-28T22:42:47.699Z,102681.37
2019-03-28T22:45:18.397Z,102681.80
2019-03-28T22:47:48.886Z,102680.92
2019-03-28T22:50:21.255Z,102679.17
2019-03-28T22:52:51.943Z,102675.65
2019-03-28T22:55:22.484Z,102676.52
2019-03-28T22:57:54.094Z,102684.05
2019-03-28T23:00:26.759Z,102682.66
2019-03-28T23:02:59.046Z,102687.50
2019-03-28T23:05:30.867Z,102684.25
2019-03-28T23:08:01.568Z,102684.48
2019-03-28T23:10:32.151Z,102681.87
2019-03-28T23:13:02.652Z,102685.78
2019-03-28T23:15:33.301Z,102677.81
2019-03-28T23:18:04.690Z,102683.05
2019-03-28T23:20:36.183Z,102678.64
2019-03-28T23:23:06.695Z,102670.14
2019-03-28T23:25:37.252Z,102674.57
2019-03-28T23:28:08.084Z,102673.18
2019-03-28T23:30:38.742Z,102679.38
2019-03-28T23:33:09.465Z,102680.77
2019-03-28T23:35:40.996Z,102682.52
2019-03-28T23:38:11.763Z,102677.23
2019-03-28T23:40:42.526Z,102677.25
2019-03-28T23:43:13.200Z,102674.13
2019-03-28T23:45:44.000Z,102672.33
2019-03-28T23:48:14.674Z,102672.30
2019-03-28T23:50:45.192Z,102668.30
2019-03-28T23:53:15.725Z,102665.58
2019-03-28T23:55:46.629Z,102662.48
2019-03-28T23:58:17.305Z,102663.27
